Mariner Of The Seas — C6FV9 — position and weather

sailwx.info

Track history (hours):
 
Tides and Currents Weather Stations Pressure Air Temp Water Temp Dewpoint Dewpoint Depression Visibility Wind Speed Wind Dir Waves Ship Positions

Mariner Of The Seas

Operator: Royal Caribbean Cruises Ltd

Last reported at 2015-Mar-30 15:27 UTC. Time now 2015-Mar-31 09:40 UTC.
Position N 31°06' E 122°30'.

Type: Passenger vessel. MMSI: 311493000.

Date/timePositionNaut miles runAvg speedWind from/ knotsBaromVisibWave heightAir tempDewpointWater temp
2015-Mar-30 15:27N 31°06' E 122°30'1415.8
2015-Mar-30 14:33N 31°09' E 122°14'1615.9
2015-Mar-30 13:33N 31°15' E 121°57'1413.9
2015-Mar-30 12:33N 31°20' E 121°42'7 6.6
2015-Mar-30 11:33N 31°23' E 121°35'4 4.4
2015-Mar-30 10:33N 31°25' E 121°30'0 0.3
2015-Mar-30 09:33N 31°25' E 121°30'0 0.0
2015-Mar-30 08:33N 31°25' E 121°30'0 0.0
2015-Mar-30 07:33N 31°25' E 121°30'0 0.0
2015-Mar-30 06:33N 31°25' E 121°30'0 0.0
2015-Mar-30 05:30N 31°25' E 121°30'0 0.0
2015-Mar-30 04:33N 31°25' E 121°30'0 0.0
2015-Mar-30 03:32N 31°25' E 121°30'0 0.0
2015-Mar-30 02:32N 31°25' E 121°30'0 0.0
2015-Mar-30 01:32N 31°25' E 121°30'0 0.0
2015-Mar-30 00:32N 31°25' E 121°30'4 4.3
2015-Mar-29 23:33N 31°23' E 121°35'1111.3
2015-Mar-29 22:33N 31°18' E 121°47'1111.3
2015-Mar-29 21:33N 31°15' E 121°59'1110.7
2015-Mar-29 20:33N 31°11' E 122°11'3912.9
2015-Mar-29 17:32N 31°07' E 122°56'  
2015-Mar-27 11:34N 34°00' E 134°55'1615.8
2015-Mar-27 10:33N 34°16' E 134°58'1817.9
2015-Mar-27 09:33N 34°30' E 135°11'1110.8
2015-Mar-27 08:33N 34°41' E 135°14'2 1.5
2015-Mar-27 07:22N 34°41' E 135°12'0 0.0
2015-Mar-27 06:33N 34°41' E 135°12'0 0.0
2015-Mar-27 05:33N 34°41' E 135°12'0 0.0
2015-Mar-27 04:33N 34°41' E 135°12'0 0.0
2015-Mar-27 03:33N 34°41' E 135°12'0 0.0
2015-Mar-27 02:27N 34°41' E 135°12'0 0.0
2015-Mar-27 01:33N 34°41' E 135°12'0 0.0
2015-Mar-27 00:27N 34°41' E 135°12'0 0.0
2015-Mar-26 23:21N 34°41' E 135°12'0 0.0
2015-Mar-26 22:33N 34°41' E 135°12'0 0.0
2015-Mar-26 21:33N 34°41' E 135°12'0 0.0
2015-Mar-26 20:33N 34°41' E 135°12'0 0.0
2015-Mar-26 19:15N 34°41' E 135°12'0 0.0
2015-Mar-26 18:33N 34°41' E 135°12'0 0.0
2015-Mar-26 17:27N 34°41' E 135°12'0 0.0
2015-Mar-26 16:33N 34°41' E 135°12'0 0.0
2015-Mar-26 15:33N 34°41' E 135°12'0 0.0
2015-Mar-26 14:33N 34°41' E 135°12'0 0.0
2015-Mar-26 13:34N 34°41' E 135°12'0 0.0
2015-Mar-26 12:33N 34°41' E 135°12'0 0.0
2015-Mar-26 11:27N 34°41' E 135°12'0 0.0
2015-Mar-26 10:33N 34°41' E 135°12'0 0.0
2015-Mar-26 09:21N 34°41' E 135°12'0 0.0
2015-Mar-26 08:27N 34°41' E 135°12'2 1.8
2015-Mar-26 07:33N 34°41' E 135°14'9 9.0
2015-Mar-26 06:33N 34°32' E 135°14'21212.5
2015-Mar-25 13:33N 34°57' E 139°30'1818.1
2015-Mar-25 12:33N 35°11' E 139°45'1211.6
2015-Mar-25 11:33N 35°22' E 139°42'6 5.7
2015-Mar-25 10:33N 35°28' E 139°41'0 0.0
2015-Mar-25 09:33N 35°28' E 139°41'0 0.0
2015-Mar-25 08:33N 35°28' E 139°41'0 0.0
2015-Mar-25 07:33N 35°28' E 139°41'0 0.0
2015-Mar-25 06:33N 35°28' E 139°41'0 0.0
2015-Mar-25 05:33N 35°28' E 139°41'0 0.0
2015-Mar-25 04:33N 35°28' E 139°41'0 0.0
2015-Mar-25 03:33N 35°28' E 139°41'0 0.0
2015-Mar-25 02:33N 35°28' E 139°41'0 0.0
2015-Mar-25 01:33N 35°28' E 139°41'0 0.0
2015-Mar-25 00:27N 35°28' E 139°41'0 0.0
2015-Mar-24 23:30N 35°28' E 139°41'0 0.0
2015-Mar-24 22:33N 35°28' E 139°41'0 0.0
2015-Mar-24 21:33N 35°28' E 139°41'0 0.0
2015-Mar-24 20:33N 35°28' E 139°41'5 5.2
2015-Mar-24 19:34N 35°25' E 139°47'1211.5
2015-Mar-24 18:33N 35°13' E 139°47'1111.3
2015-Mar-24 17:33N 35°03' E 139°42'1713.7
2015-Mar-24 16:18N 34°54' E 139°24'73916.9
2015-Mar-22 20:32N 31°05' E 125°27'2418.9
2015-Mar-22 19:16N 31°05' E 124°59'1719.0
2015-Mar-22 18:23N 31°04' E 124°39'5919.1
2015-Mar-22 15:16N 31°06' E 123°30'1317.5
2015-Mar-22 14:32N 31°05' E 123°15'1717.5
2015-Mar-22 13:33N 31°05' E 122°55'1717.3
2015-Mar-22 12:33N 31°05' E 122°35'1414.2
2015-Mar-22 11:33N 31°06' E 122°18'1414.4
2015-Mar-22 10:33N 31°14' E 122°04'1515.1
2015-Mar-22 09:33N 31°18' E 121°47'1312.8
2015-Mar-22 08:34N 31°23' E 121°33'3 3.0
2015-Mar-22 07:32N 31°25' E 121°30'0 0.0
2015-Mar-22 06:32N 31°25' E 121°30'0 0.0
2015-Mar-22 05:23N 31°25' E 121°30'0 0.0
2015-Mar-22 04:20N 31°25' E 121°30'0 0.0
2015-Mar-22 03:32N 31°25' E 121°30'0 0.0
2015-Mar-22 02:32N 31°25' E 121°30'0 0.0
2015-Mar-22 01:29N 31°25' E 121°30'0 0.0
2015-Mar-22 00:32N 31°25' E 121°30'0 0.0
2015-Mar-21 23:32N 31°25' E 121°30'0 0.0
2015-Mar-21 22:26N 31°25' E 121°30'0 0.0
2015-Mar-21 21:32N 31°25' E 121°30'0 0.0
2015-Mar-21 20:32N 31°25' E 121°30'0 0.1
2015-Mar-21 19:33N 31°25' E 121°30'9 9.0
2015-Mar-21 18:33N 31°21' E 121°40'1010.0
2015-Mar-21 17:33N 31°17' E 121°50'10 9.8
2015-Mar-21 16:33N 31°15' E 122°01'8 7.6
2015-Mar-21 15:33N 31°11' E 122°10'8 7.5
2015-Mar-21 14:33N 31°07' E 122°17'15 7.1
2015-Mar-21 12:29N 31°14' E 122°32'2310.6
2015-Mar-21 10:17N 31°27' E 122°55'  
Track history (hours):
 
Tides and Currents Weather Stations Pressure Air Temp Water Temp Dewpoint Dewpoint Depression Visibility Wind Speed Wind Dir Waves Ship Positions

Mariner Of The Seas

Operator: Royal Caribbean Cruises Ltd

Last reported at 2015-Mar-30 15:27 UTC. Time now 2015-Mar-31 09:40 UTC.
Position N 31°06' E 122°30'.

Type: Passenger vessel. MMSI: 311493000.

Date/timePositionNaut miles runAvg speedWind from/ knotsBaromVisibWave heightAir tempDewpointWater temp
2015-Mar-30 15:27N 31°06' E 122°30'1415.8
2015-Mar-30 14:33N 31°09' E 122°14'1615.9
2015-Mar-30 13:33N 31°15' E 121°57'1413.9
2015-Mar-30 12:33N 31°20' E 121°42'7 6.6
2015-Mar-30 11:33N 31°23' E 121°35'4 4.4
2015-Mar-30 10:33N 31°25' E 121°30'0 0.3
2015-Mar-30 09:33N 31°25' E 121°30'0 0.0
2015-Mar-30 08:33N 31°25' E 121°30'0 0.0
2015-Mar-30 07:33N 31°25' E 121°30'0 0.0
2015-Mar-30 06:33N 31°25' E 121°30'0 0.0
2015-Mar-30 05:30N 31°25' E 121°30'0 0.0
2015-Mar-30 04:33N 31°25' E 121°30'0 0.0
2015-Mar-30 03:32N 31°25' E 121°30'0 0.0
2015-Mar-30 02:32N 31°25' E 121°30'0 0.0
2015-Mar-30 01:32N 31°25' E 121°30'0 0.0
2015-Mar-30 00:32N 31°25' E 121°30'4 4.3
2015-Mar-29 23:33N 31°23' E 121°35'1111.3
2015-Mar-29 22:33N 31°18' E 121°47'1111.3
2015-Mar-29 21:33N 31°15' E 121°59'1110.7
2015-Mar-29 20:33N 31°11' E 122°11'3912.9
2015-Mar-29 17:32N 31°07' E 122°56'  
2015-Mar-27 11:34N 34°00' E 134°55'1615.8
2015-Mar-27 10:33N 34°16' E 134°58'1817.9
2015-Mar-27 09:33N 34°30' E 135°11'1110.8
2015-Mar-27 08:33N 34°41' E 135°14'2 1.5
2015-Mar-27 07:22N 34°41' E 135°12'0 0.0
2015-Mar-27 06:33N 34°41' E 135°12'0 0.0
2015-Mar-27 05:33N 34°41' E 135°12'0 0.0
2015-Mar-27 04:33N 34°41' E 135°12'0 0.0
2015-Mar-27 03:33N 34°41' E 135°12'0 0.0
2015-Mar-27 02:27N 34°41' E 135°12'0 0.0
2015-Mar-27 01:33N 34°41' E 135°12'0 0.0
2015-Mar-27 00:27N 34°41' E 135°12'0 0.0
2015-Mar-26 23:21N 34°41' E 135°12'0 0.0
2015-Mar-26 22:33N 34°41' E 135°12'0 0.0
2015-Mar-26 21:33N 34°41' E 135°12'0 0.0
2015-Mar-26 20:33N 34°41' E 135°12'0 0.0
2015-Mar-26 19:15N 34°41' E 135°12'0 0.0
2015-Mar-26 18:33N 34°41' E 135°12'0 0.0
2015-Mar-26 17:27N 34°41' E 135°12'0 0.0
2015-Mar-26 16:33N 34°41' E 135°12'0 0.0
2015-Mar-26 15:33N 34°41' E 135°12'0 0.0
2015-Mar-26 14:33N 34°41' E 135°12'0 0.0
2015-Mar-26 13:34N 34°41' E 135°12'0 0.0
2015-Mar-26 12:33N 34°41' E 135°12'0 0.0
2015-Mar-26 11:27N 34°41' E 135°12'0 0.0
2015-Mar-26 10:33N 34°41' E 135°12'0 0.0
2015-Mar-26 09:21N 34°41' E 135°12'0 0.0
2015-Mar-26 08:27N 34°41' E 135°12'2 1.8
2015-Mar-26 07:33N 34°41' E 135°14'9 9.0
2015-Mar-26 06:33N 34°32' E 135°14'21212.5
2015-Mar-25 13:33N 34°57' E 139°30'1818.1
2015-Mar-25 12:33N 35°11' E 139°45'1211.6
2015-Mar-25 11:33N 35°22' E 139°42'6 5.7
2015-Mar-25 10:33N 35°28' E 139°41'0 0.0
2015-Mar-25 09:33N 35°28' E 139°41'0 0.0
2015-Mar-25 08:33N 35°28' E 139°41'0 0.0
2015-Mar-25 07:33N 35°28' E 139°41'0 0.0
2015-Mar-25 06:33N 35°28' E 139°41'0 0.0
2015-Mar-25 05:33N 35°28' E 139°41'0 0.0
2015-Mar-25 04:33N 35°28' E 139°41'0 0.0
2015-Mar-25 03:33N 35°28' E 139°41'0 0.0
2015-Mar-25 02:33N 35°28' E 139°41'0 0.0
2015-Mar-25 01:33N 35°28' E 139°41'0 0.0
2015-Mar-25 00:27N 35°28' E 139°41'0 0.0
2015-Mar-24 23:30N 35°28' E 139°41'0 0.0
2015-Mar-24 22:33N 35°28' E 139°41'0 0.0
2015-Mar-24 21:33N 35°28' E 139°41'0 0.0
2015-Mar-24 20:33N 35°28' E 139°41'5 5.2
2015-Mar-24 19:34N 35°25' E 139°47'1211.5
2015-Mar-24 18:33N 35°13' E 139°47'1111.3
2015-Mar-24 17:33N 35°03' E 139°42'1713.7
2015-Mar-24 16:18N 34°54' E 139°24'73916.9
2015-Mar-22 20:32N 31°05' E 125°27'2418.9
2015-Mar-22 19:16N 31°05' E 124°59'1719.0
2015-Mar-22 18:23N 31°04' E 124°39'5919.1
2015-Mar-22 15:16N 31°06' E 123°30'1317.5
2015-Mar-22 14:32N 31°05' E 123°15'1717.5
2015-Mar-22 13:33N 31°05' E 122°55'1717.3
2015-Mar-22 12:33N 31°05' E 122°35'1414.2
2015-Mar-22 11:33N 31°06' E 122°18'1414.4
2015-Mar-22 10:33N 31°14' E 122°04'1515.1
2015-Mar-22 09:33N 31°18' E 121°47'1312.8
2015-Mar-22 08:34N 31°23' E 121°33'3 3.0
2015-Mar-22 07:32N 31°25' E 121°30'0 0.0
2015-Mar-22 06:32N 31°25' E 121°30'0 0.0
2015-Mar-22 05:23N 31°25' E 121°30'0 0.0
2015-Mar-22 04:20N 31°25' E 121°30'0 0.0
2015-Mar-22 03:32N 31°25' E 121°30'0 0.0
2015-Mar-22 02:32N 31°25' E 121°30'0 0.0
2015-Mar-22 01:29N 31°25' E 121°30'0 0.0
2015-Mar-22 00:32N 31°25' E 121°30'0 0.0
2015-Mar-21 23:32N 31°25' E 121°30'0 0.0
2015-Mar-21 22:26N 31°25' E 121°30'0 0.0
2015-Mar-21 21:32N 31°25' E 121°30'0 0.0
2015-Mar-21 20:32N 31°25' E 121°30'0 0.1
2015-Mar-21 19:33N 31°25' E 121°30'9 9.0
2015-Mar-21 18:33N 31°21' E 121°40'1010.0
2015-Mar-21 17:33N 31°17' E 121°50'10 9.8
2015-Mar-21 16:33N 31°15' E 122°01'8 7.6
2015-Mar-21 15:33N 31°11' E 122°10'8 7.5
2015-Mar-21 14:33N 31°07' E 122°17'15 7.1
2015-Mar-21 12:29N 31°14' E 122°32'2310.6
2015-Mar-21 10:17N 31°27' E 122°55'  

Dump ship's entire track history